createdAt,value
2022-08-10T00:01:52.276Z,46.30
2022-08-10T00:04:24.554Z,34.20
2022-08-10T00:06:53.707Z,34.10
2022-08-10T00:09:24.427Z,46.00
2022-08-10T00:28:01.638Z,46.60
2022-08-10T00:39:47.164Z,35.20
2022-08-10T00:42:19.750Z,35.30
2022-08-10T00:44:50.029Z,35.00
2022-08-10T00:47:36.349Z,35.40
2022-08-10T00:50:08.412Z,47.20
2022-08-10T00:52:40.310Z,35.50
2022-08-10T00:55:09.213Z,36.60
2022-08-10T00:57:40.484Z,35.40
2022-08-10T01:00:10.103Z,47.90
2022-08-10T01:05:10.389Z,36.10
2022-08-10T01:07:51.995Z,35.70
2022-08-10T01:10:33.663Z,36.60
2022-08-10T01:13:10.826Z,36.20
2022-08-10T01:15:53.897Z,36.00
2022-08-10T01:18:29.034Z,36.30
2022-08-10T01:21:22.092Z,36.30
2022-08-10T01:24:14.768Z,47.80
2022-08-10T01:26:57.996Z,36.00
2022-08-10T01:29:57.888Z,48.60
2022-08-10T01:32:40.267Z,36.10
2022-08-10T01:35:15.688Z,48.60
2022-08-10T01:37:52.566Z,49.00
2022-08-10T01:40:28.352Z,36.10
2022-08-10T01:42:59.656Z,36.80
2022-08-10T01:45:44.719Z,36.90
2022-08-10T01:48:31.973Z,48.70
2022-08-10T01:51:17.798Z,49.50
2022-08-10T01:53:53.472Z,36.80
2022-08-10T01:56:25.355Z,49.60
2022-08-10T01:58:58.247Z,49.70
2022-08-10T02:01:31.791Z,37.10
2022-08-10T02:04:06.751Z,36.70
2022-08-10T02:06:39.606Z,37.00
2022-08-10T02:09:09.380Z,37.20
2022-08-10T02:12:05.251Z,37.10
2022-08-10T02:14:34.599Z,38.80
2022-08-10T02:17:07.678Z,49.40
2022-08-10T02:19:39.723Z,37.30
2022-08-10T02:22:37.637Z,37.00
2022-08-10T02:24:59.683Z,50.20
2022-08-10T02:27:30.255Z,37.50
2022-08-10T02:30:00.053Z,50.10
2022-08-10T02:32:37.765Z,37.40
2022-08-10T02:35:21.841Z,37.60
2022-08-10T02:37:54.578Z,51.00
2022-08-10T02:45:27.817Z,50.00
2022-08-10T02:46:20.797Z,37.60
2022-08-10T02:49:00.377Z,37.60
2022-08-10T02:52:07.509Z,54.40
2022-08-10T02:54:29.373Z,51.30
2022-08-10T02:57:07.543Z,50.80
2022-08-10T02:59:43.068Z,52.20
2022-08-10T03:02:15.558Z,52.20
2022-08-10T03:04:55.063Z,52.30
2022-08-10T03:07:43.173Z,51.50
2022-08-10T03:10:17.245Z,38.40
2022-08-10T03:12:48.654Z,52.20
2022-08-10T03:15:19.595Z,51.10
2022-08-10T03:17:57.994Z,54.10
2022-08-10T03:20:35.415Z,54.80
2022-08-10T03:23:12.380Z,55.40
2022-08-10T03:25:41.036Z,51.30
2022-08-10T03:30:50.343Z,38.60
2022-08-10T03:36:40.660Z,38.60
2022-08-10T03:38:37.189Z,51.80
2022-08-10T03:41:09.623Z,38.70
2022-08-10T03:43:38.868Z,38.60
2022-08-10T03:46:10.880Z,51.40
2022-08-10T03:48:49.131Z,38.80
2022-08-10T03:51:20.720Z,39.10
2022-08-10T03:56:37.315Z,51.60
2022-08-10T04:06:56.272Z,38.60
2022-08-10T04:09:42.940Z,39.80
2022-08-10T04:14:49.943Z,55.80
2022-08-10T04:20:12.784Z,53.60
2022-08-10T04:22:44.466Z,39.30
2022-08-10T04:25:16.232Z,39.10
2022-08-10T04:30:14.086Z,53.00
2022-08-10T04:32:42.766Z,39.20
2022-08-10T04:35:12.495Z,39.00
2022-08-10T04:37:47.561Z,38.90
2022-08-10T04:40:28.279Z,39.20
2022-08-10T04:48:42.717Z,39.80
2022-08-10T04:51:17.406Z,39.20
2022-08-10T04:54:02.853Z,39.30
2022-08-10T05:07:10.685Z,53.60
2022-08-10T05:10:03.081Z,39.40
2022-08-10T05:12:29.680Z,52.30
2022-08-10T05:14:57.942Z,53.20
2022-08-10T05:22:36.218Z,39.70
2022-08-10T05:25:07.153Z,52.20
2022-08-10T05:27:35.602Z,52.50
2022-08-10T05:30:04.522Z,52.20
2022-08-10T05:32:56.779Z,52.70
2022-08-10T05:35:21.581Z,53.30
2022-08-10T05:38:10.694Z,53.40
2022-08-10T05:40:46.632Z,52.60
2022-08-10T05:43:18.377Z,39.60
2022-08-10T05:46:18.018Z,52.40
2022-08-10T05:48:41.759Z,53.40
2022-08-10T05:51:24.379Z,56.20
2022-08-10T05:54:01.006Z,52.40
2022-08-10T05:56:53.185Z,53.90
2022-08-10T06:00:31.006Z,52.70
2022-08-10T06:02:31.589Z,52.90
2022-08-10T06:05:08.675Z,53.20
2022-08-10T06:07:40.038Z,53.70
2022-08-10T06:10:12.257Z,53.50
2022-08-10T06:12:54.860Z,54.00
2022-08-10T06:15:51.930Z,44.70
2022-08-10T06:18:15.857Z,40.30
2022-08-10T06:20:44.622Z,52.90
2022-08-10T06:23:14.124Z,56.80
2022-08-10T06:26:12.074Z,54.10
2022-08-10T06:28:38.784Z,53.20
2022-08-10T06:31:08.677Z,52.90
2022-08-10T06:33:40.088Z,42.40
2022-08-10T06:36:09.834Z,40.10
2022-08-10T06:38:40.585Z,55.20
2022-08-10T06:41:20.006Z,40.30
2022-08-10T06:44:02.844Z,41.60
2022-08-10T06:46:35.681Z,42.50
2022-08-10T06:49:06.925Z,43.40
2022-08-10T06:51:37.094Z,42.70
2022-08-10T06:54:07.483Z,43.40
2022-08-10T06:56:50.891Z,42.90
2022-08-10T06:59:37.178Z,43.20
2022-08-10T07:02:07.583Z,53.20
2022-08-10T07:04:43.311Z,55.80
2022-08-10T07:07:18.442Z,43.00
2022-08-10T07:09:47.160Z,56.90
2022-08-10T07:12:18.301Z,56.50
2022-08-10T07:14:48.733Z,61.00
2022-08-10T07:17:20.795Z,56.80
2022-08-10T07:19:52.710Z,61.50
2022-08-10T07:23:51.796Z,57.90
2022-08-10T07:25:16.064Z,45.40
2022-08-10T07:28:00.262Z,44.90
2022-08-10T07:30:33.313Z,58.20
2022-08-10T07:33:05.699Z,58.20
2022-08-10T07:35:43.191Z,59.50
2022-08-10T07:38:21.702Z,57.50
2022-08-10T07:40:51.856Z,57.30
2022-08-10T07:43:24.285Z,44.40
2022-08-10T07:45:54.184Z,58.40
2022-08-10T07:48:26.571Z,57.20
2022-08-10T07:50:59.318Z,57.20
2022-08-10T07:53:28.934Z,57.40
2022-08-10T07:56:03.710Z,56.80
2022-08-10T07:58:39.316Z,56.30
2022-08-10T08:01:11.324Z,44.40
2022-08-10T08:03:41.628Z,56.30
2022-08-10T08:06:11.983Z,59.70
2022-08-10T08:08:42.075Z,56.20
2022-08-10T08:11:25.384Z,55.50
2022-08-10T08:13:55.583Z,50.90
2022-08-10T08:16:27.612Z,54.10
2022-08-10T08:24:08.543Z,54.10
2022-08-10T08:24:38.587Z,55.90
2022-08-10T08:27:07.735Z,58.80
2022-08-10T08:29:39.852Z,55.10
2022-08-10T08:32:11.425Z,51.00
2022-08-10T08:34:42.103Z,52.00
2022-08-10T08:37:12.293Z,40.80
2022-08-10T08:39:47.259Z,52.20
2022-08-10T08:42:28.004Z,50.60
2022-08-10T08:45:07.972Z,49.70
2022-08-10T08:48:04.921Z,48.60
2022-08-10T08:50:48.903Z,47.60
2022-08-10T08:54:03.563Z,45.30
2022-08-10T08:56:30.767Z,34.40
2022-08-10T08:59:24.708Z,31.10
2022-08-10T09:02:10.110Z,31.20
2022-08-10T09:05:01.484Z,41.50
2022-08-10T09:08:00.730Z,44.50
2022-08-10T09:10:45.322Z,40.30
2022-08-10T09:13:26.756Z,39.30
2022-08-10T09:16:04.341Z,28.90
2022-08-10T09:18:40.471Z,36.40
2022-08-10T09:21:18.451Z,27.60
2022-08-10T09:24:04.723Z,40.90
2022-08-10T09:26:46.487Z,28.70
2022-08-10T09:29:18.532Z,35.00
2022-08-10T09:33:05.362Z,35.00
2022-08-10T09:36:22.443Z,34.40
2022-08-10T09:38:01.735Z,37.90
2022-08-10T09:40:59.956Z,37.20
2022-08-10T09:43:37.487Z,37.40
2022-08-10T09:46:15.150Z,27.90
2022-08-10T09:48:54.536Z,32.60
2022-08-10T09:51:47.652Z,31.10
2022-08-10T09:54:42.202Z,30.80
2022-08-10T09:57:43.815Z,30.80
2022-08-10T10:00:30.217Z,30.40
2022-08-10T10:03:13.607Z,24.10
2022-08-10T10:05:53.006Z,28.30
2022-08-10T10:08:34.265Z,23.90
2022-08-10T10:11:13.032Z,23.60
2022-08-10T10:14:03.722Z,27.90
2022-08-10T10:16:54.395Z,26.30
2022-08-10T10:19:52.478Z,21.20
2022-08-10T10:22:37.810Z,22.00
2022-08-10T10:25:21.053Z,31.50
2022-08-10T10:28:03.820Z,27.70
2022-08-10T10:30:39.737Z,31.70
2022-08-10T10:33:14.743Z,22.20
2022-08-10T10:35:49.434Z,27.80
2022-08-10T10:38:19.788Z,27.70
2022-08-10T10:40:54.135Z,25.70
2022-08-10T10:43:37.231Z,25.40
2022-08-10T10:46:13.617Z,25.90
2022-08-10T10:48:53.613Z,27.30
2022-08-10T10:51:28.330Z,25.00
2022-08-10T10:54:08.851Z,21.10
2022-08-10T10:56:50.151Z,26.20
2022-08-10T10:59:53.759Z,27.30
2022-08-10T11:02:44.767Z,25.70
2022-08-10T11:05:28.050Z,29.60
2022-08-10T11:08:01.317Z,27.20
2022-08-10T11:10:43.228Z,26.90
2022-08-10T11:14:25.005Z,27.90
2022-08-10T11:16:26.036Z,23.10
2022-08-10T11:19:04.871Z,25.50
2022-08-10T11:21:44.155Z,25.70
2022-08-10T11:24:48.419Z,21.40
2022-08-10T11:31:54.624Z,25.30
2022-08-10T11:34:47.074Z,20.20
2022-08-10T11:37:23.240Z,24.00
2022-08-10T11:40:23.053Z,18.80
2022-08-10T11:43:11.176Z,20.90
2022-08-10T11:45:51.559Z,19.20
2022-08-10T11:48:54.102Z,18.20
2022-08-10T11:51:23.895Z,23.90
2022-08-10T11:53:59.643Z,19.40
2022-08-10T12:00:25.118Z,19.60
2022-08-10T12:03:00.966Z,20.50
2022-08-10T12:05:51.830Z,20.70
2022-08-10T12:10:02.910Z,24.40
2022-08-10T12:11:23.779Z,23.60
2022-08-10T12:16:52.456Z,23.60
2022-08-10T12:20:01.783Z,22.80
2022-08-10T12:22:39.568Z,18.70
2022-08-10T12:25:57.065Z,23.60
2022-08-10T12:28:11.970Z,23.20
2022-08-10T12:30:47.663Z,19.00
2022-08-10T12:33:25.395Z,19.20
2022-08-10T12:36:18.034Z,24.00
2022-08-10T12:39:02.804Z,19.20
2022-08-10T12:41:44.704Z,20.10
2022-08-10T12:44:19.334Z,22.30
2022-08-10T12:46:55.894Z,21.90
2022-08-10T12:49:31.400Z,18.50
2022-08-10T12:52:06.055Z,24.20
2022-08-10T12:54:37.855Z,28.60
2022-08-10T12:57:10.020Z,23.80
2022-08-10T12:59:42.922Z,24.90
2022-08-10T13:02:15.679Z,24.90
2022-08-10T13:04:45.844Z,25.50
2022-08-10T13:08:03.533Z,20.70
2022-08-10T13:10:13.147Z,20.10
2022-08-10T13:12:45.315Z,20.40
2022-08-10T13:15:45.714Z,19.20
2022-08-10T13:18:18.468Z,24.50
2022-08-10T13:20:51.816Z,20.00
2022-08-10T13:23:23.194Z,24.50
2022-08-10T13:25:55.176Z,19.60
2022-08-10T13:28:39.855Z,24.10
2022-08-10T13:31:16.999Z,24.40
2022-08-10T13:34:40.655Z,22.90
2022-08-10T13:36:40.448Z,24.50
2022-08-10T13:39:09.584Z,25.50
2022-08-10T13:41:43.557Z,24.70
2022-08-10T13:44:15.963Z,27.80
2022-08-10T13:46:50.969Z,20.70
2022-08-10T13:49:21.208Z,20.20
2022-08-10T13:51:56.773Z,25.80
2022-08-10T13:54:30.035Z,26.80
2022-08-10T13:57:00.203Z,25.70
2022-08-10T14:00:35.539Z,26.10
2022-08-10T14:02:26.111Z,25.90
2022-08-10T14:04:56.728Z,31.50
2022-08-10T14:07:27.134Z,22.80
2022-08-10T14:10:04.928Z,33.60
2022-08-10T14:12:36.529Z,26.60
2022-08-10T14:15:08.104Z,26.20
2022-08-10T14:17:44.614Z,31.90
2022-08-10T14:20:19.269Z,22.20
2022-08-10T14:22:49.735Z,27.10
2022-08-10T14:25:17.975Z,25.30
2022-08-10T14:28:03.180Z,26.90
2022-08-10T14:30:34.110Z,28.40
2022-08-10T14:33:04.613Z,22.70
2022-08-10T14:36:20.427Z,28.50
2022-08-10T14:38:29.840Z,26.20
2022-08-10T14:41:01.631Z,26.30
2022-08-10T14:43:36.919Z,21.30
2022-08-10T14:46:07.676Z,26.40
2022-08-10T14:48:40.870Z,20.50
2022-08-10T14:51:10.184Z,24.90
2022-08-10T14:53:40.597Z,26.10
2022-08-10T14:56:13.522Z,25.80
2022-08-10T14:59:06.092Z,26.20
2022-08-10T15:02:00.182Z,20.20
2022-08-10T15:04:28.386Z,26.80
2022-08-10T15:07:01.142Z,26.50
2022-08-10T15:10:00.424Z,21.00
2022-08-10T15:12:27.041Z,21.70
2022-08-10T15:15:01.139Z,22.10
2022-08-10T15:17:34.845Z,26.70
2022-08-10T15:22:50.420Z,25.10
2022-08-10T15:25:24.298Z,26.50
2022-08-10T15:27:56.686Z,26.60
2022-08-10T15:30:31.390Z,21.90
2022-08-10T15:33:21.194Z,26.60
2022-08-10T15:36:27.487Z,27.10
2022-08-10T15:39:01.306Z,21.80
2022-08-10T15:44:38.442Z,20.60
2022-08-10T15:47:12.234Z,26.50
2022-08-10T15:49:51.742Z,20.70
2022-08-10T15:52:39.318Z,22.30
2022-08-10T15:55:43.165Z,21.20
2022-08-10T15:58:37.724Z,21.20
2022-08-10T16:02:14.446Z,26.50
2022-08-10T16:04:08.519Z,26.90
2022-08-10T16:06:42.797Z,26.70
2022-08-10T16:10:11.190Z,21.10
2022-08-10T16:12:09.853Z,20.80
2022-08-10T16:14:39.178Z,25.80
2022-08-10T16:17:11.819Z,26.90
2022-08-10T16:19:48.728Z,26.20
2022-08-10T16:22:35.521Z,26.70
2022-08-10T16:25:15.153Z,26.40
2022-08-10T16:27:46.708Z,20.70
2022-08-10T16:30:15.613Z,26.90
2022-08-10T16:32:47.520Z,26.70
2022-08-10T16:35:20.958Z,29.20
2022-08-10T16:37:56.483Z,20.50
2022-08-10T16:40:29.931Z,24.40
2022-08-10T16:43:00.146Z,19.80
2022-08-10T16:45:32.722Z,26.50
2022-08-10T16:48:01.464Z,25.90
2022-08-10T16:50:33.996Z,21.20
2022-08-10T16:53:03.500Z,25.60
2022-08-10T16:55:48.596Z,20.10
2022-08-10T16:58:25.390Z,25.20
2022-08-10T17:01:21.367Z,26.80
2022-08-10T17:04:07.569Z,20.80
2022-08-10T17:10:08.849Z,24.90
2022-08-10T17:12:40.405Z,25.50
2022-08-10T17:15:11.843Z,20.30
2022-08-10T17:17:46.555Z,21.50
2022-08-10T17:20:49.283Z,25.10
2022-08-10T17:23:20.198Z,29.40
2022-08-10T17:25:50.960Z,25.70
2022-08-10T17:28:36.022Z,20.10
2022-08-10T17:31:39.758Z,19.90
2022-08-10T17:34:03.732Z,25.90
2022-08-10T17:36:36.345Z,25.50
2022-08-10T17:39:09.544Z,20.10
2022-08-10T17:41:38.723Z,26.30
2022-08-10T17:44:07.410Z,20.80
2022-08-10T17:46:40.167Z,26.10
2022-08-10T17:49:10.035Z,25.40
2022-08-10T17:51:39.450Z,25.70
2022-08-10T17:54:21.073Z,26.10
2022-08-10T17:56:51.833Z,25.50
2022-08-10T18:00:02.064Z,26.40
2022-08-10T18:02:37.622Z,20.10
2022-08-10T18:05:09.090Z,26.30
2022-08-10T18:07:41.656Z,26.80
2022-08-10T18:10:15.433Z,26.20
2022-08-10T18:12:49.761Z,20.60
2022-08-10T18:15:22.145Z,20.80
2022-08-10T18:17:59.227Z,27.10
2022-08-10T18:20:34.004Z,21.10
2022-08-10T18:23:02.760Z,28.00
2022-08-10T18:25:34.783Z,27.80
2022-08-10T18:28:08.494Z,27.60
2022-08-10T18:30:51.028Z,28.50
2022-08-10T18:33:41.788Z,21.30
2022-08-10T18:36:14.090Z,21.30
2022-08-10T18:38:48.549Z,21.10
2022-08-10T18:41:22.678Z,27.80
2022-08-10T18:44:07.071Z,28.40
2022-08-10T18:46:46.161Z,28.70
2022-08-10T18:49:20.432Z,21.60
2022-08-10T18:51:50.844Z,21.60
2022-08-10T18:54:31.477Z,21.90
2022-08-10T18:57:31.423Z,29.30
2022-08-10T19:00:16.538Z,28.70
2022-08-10T19:03:30.500Z,28.70
2022-08-10T19:06:13.036Z,22.40
2022-08-10T19:09:04.829Z,29.00
2022-08-10T19:12:06.131Z,23.30
2022-08-10T19:15:05.987Z,23.00
2022-08-10T19:18:04.447Z,24.10
2022-08-10T19:20:39.044Z,22.90
2022-08-10T19:23:18.775Z,23.00
2022-08-10T19:26:33.050Z,30.40
2022-08-10T19:28:59.806Z,29.90
2022-08-10T19:31:44.926Z,30.20
2022-08-10T19:34:34.950Z,23.20
2022-08-10T19:37:10.834Z,30.10
2022-08-10T19:40:09.734Z,23.40
2022-08-10T19:42:50.661Z,23.80
2022-08-10T19:45:55.985Z,24.90
2022-08-10T19:48:23.586Z,32.00
2022-08-10T19:50:57.006Z,31.30
2022-08-10T19:53:32.631Z,31.40
2022-08-10T19:56:33.023Z,24.30
2022-08-10T19:59:06.794Z,24.10
2022-08-10T20:01:54.459Z,31.80
2022-08-10T20:04:31.901Z,31.60
2022-08-10T20:07:11.925Z,24.50
2022-08-10T20:09:47.208Z,24.40
2022-08-10T20:12:21.382Z,25.00
2022-08-10T20:14:59.794Z,32.30
2022-08-10T20:17:51.594Z,24.70
2022-08-10T20:20:31.626Z,24.60
2022-08-10T20:23:16.088Z,33.40
2022-08-10T20:25:48.457Z,32.20
2022-08-10T20:28:21.804Z,37.00
2022-08-10T20:30:56.654Z,25.00
2022-08-10T20:33:30.233Z,24.90
2022-08-10T20:36:05.932Z,24.90
2022-08-10T20:38:39.872Z,25.40
2022-08-10T20:41:25.491Z,25.10
2022-08-10T20:44:03.568Z,25.20
2022-08-10T20:46:38.754Z,33.80
2022-08-10T20:49:20.855Z,24.90
2022-08-10T20:51:59.261Z,33.60
2022-08-10T20:54:33.898Z,34.40
2022-08-10T20:57:55.479Z,25.70
2022-08-10T21:00:13.849Z,25.80
2022-08-10T21:03:15.816Z,25.70
2022-08-10T21:06:00.773Z,26.50
2022-08-10T21:08:44.028Z,34.60
2022-08-10T21:11:18.670Z,34.00
2022-08-10T21:14:09.051Z,34.80
2022-08-10T21:16:50.055Z,25.70
2022-08-10T21:35:36.581Z,26.00
2022-08-10T21:38:16.834Z,26.10
2022-08-10T21:41:18.679Z,36.10
2022-08-10T21:44:18.350Z,26.30
2022-08-10T21:47:31.056Z,36.30
2022-08-10T21:50:27.381Z,36.70
2022-08-10T22:12:31.613Z,27.60
2022-08-10T22:19:01.886Z,27.80
2022-08-10T22:21:58.874Z,38.10
2022-08-10T22:25:05.731Z,39.50
2022-08-10T22:31:28.552Z,38.60
2022-08-10T22:40:21.546Z,28.50
2022-08-10T22:43:10.735Z,40.50
2022-08-10T22:46:14.291Z,30.00
2022-08-10T22:49:01.597Z,44.60
2022-08-10T22:51:53.671Z,39.80
2022-08-10T22:54:48.452Z,44.70
2022-08-10T22:57:40.994Z,41.00
2022-08-10T23:00:18.885Z,29.20
2022-08-10T23:03:21.719Z,30.30
2022-08-10T23:26:36.517Z,32.70
2022-08-10T23:33:37.425Z,41.50
2022-08-10T23:36:34.320Z,42.00
2022-08-10T23:39:24.260Z,45.80
2022-08-10T23:42:07.006Z,30.00
2022-08-10T23:44:40.133Z,42.00
2022-08-10T23:47:09.356Z,42.00
2022-08-10T23:49:40.175Z,42.90
2022-08-10T23:56:37.194Z,30.80
2022-08-10T23:59:12.358Z,43.20
